Dania, FL

7:40 AM EST on February 28, 2015 (GMT -0500)
Fort Lauderdale-Hollywood International | Change Station
CLOSE
Current Station
Airport
Location: Ft Lauderdale,
Elevation: 10 ft
Nearby Weather Stations

Elev 10 ft 26.07 °N, 80.15 °W | Updated 5 minutes ago

Overcast
Overcast
75 °F
Feels Like 75 °F
N
13
Wind Variable Wind from East

Today
High -- | Low -- °F
--% Chance of Precip.
Yesterday
High -- | Low -- °F
Precip. -- in
6:45 AM 6:21 PM
Waxing Gibbous, 77% visible
Pressure 30.21 in
Visibility 8.0 miles
Clouds Scattered Clouds 1700 ft
Mostly Cloudy 2800 ft
Dew Point 71 °F
Humidity 87%
Rainfall 0.00 in
Snow Depth Not available.
UV 0 out of 12
Pollen 8.90 out of 12
Air Quality Not available.
Flu Activity Not available.
SPECI KFLL 281235Z 08011KT 8SM SCT017CB BKN028 24/22 A3021 RMK AO2 CB S MOV NW AND CB DSNT SE T02390217

More Conditions Fewer Conditions

Pressure 30.21 in
Visibility 8.0 miles
Clouds Scattered Clouds 1700 ft
Mostly Cloudy 2800 ft
Dew Point 71 °F
Humidity 87%
Rainfall 0.00 in
Snow Depth Not available.
UV 0 out of 12
Pollen 8.90 out of 12
Air Quality Not available.
Flu Activity Not available.
SPECI KFLL 281235Z 08011KT 8SM SCT017CB BKN028 24/22 A3021 RMK AO2 CB S MOV NW AND CB DSNT SE T02390217

More Conditions Fewer Conditions

Nowcast | as of 7:03 am EST on February 28, 2015

Isolated to widely scattered showers will impact immediate coastal sections of northeast Miami Dade and southeast Broward counties through the next couple of hours bringing brief periods of heavy downpours across affected coastal communities. An isolated waterspout along with the adjacent coastal waters cannot be ruled out either. Boaters are advised to exercise caution.

×

10-Day Weather Forecast

Almanac

Astronomy

Feb. 28, 2015 Rise Set
Actual Time
Civil Twilight
Nautical Twilight
Astronomical Twilight
Moon
Length of Visible Light
Length of Day
Tomorrow will be .
, % of the Moon is Illuminated

Today's Extremes

State Highs State Lows

Community

WunderPhotos

Upload Photos

1,800,999 photos uploaded!

WunderBlogs® & News

Nearby

Air Quality

  Air Quality AQ Index Pollutant
Not available.

Snow Depth

Station Depth Elevation

Earthquake Activity

City Distance Mag. Time & Date
Minimum magnitude displayed is 2.5.

Coastal Water Temperatures

Place Temperature

Nearby Weather Stations